sensor_id;sensor_type;location;lat;lon;timestamp;P1;durP1;ratioP1;P2;durP2;ratioP2
12840;SDS011;6487;48.626;12.486;2023-06-04T00:00:06;3.23;;;2.17;;
12840;SDS011;6487;48.626;12.486;2023-06-04T00:02:38;2.90;;;2.60;;
12840;SDS011;6487;48.626;12.486;2023-06-04T00:05:08;4.10;;;2.73;;
12840;SDS011;6487;48.626;12.486;2023-06-04T00:07:36;4.20;;;2.73;;
12840;SDS011;6487;48.626;12.486;2023-06-04T00:10:05;3.60;;;2.50;;
12840;SDS011;6487;48.626;12.486;2023-06-04T00:12:34;2.97;;;2.43;;
12840;SDS011;6487;48.626;12.486;2023-06-04T00:15:03;2.67;;;2.17;;
12840;SDS011;6487;48.626;12.486;2023-06-04T00:17:32;3.23;;;2.30;;
12840;SDS011;6487;48.626;12.486;2023-06-04T00:20:01;3.13;;;2.50;;
12840;SDS011;6487;48.626;12.486;2023-06-04T00:22:31;4.07;;;2.13;;
12840;SDS011;6487;48.626;12.486;2023-06-04T00:24:59;2.50;;;2.20;;
12840;SDS011;6487;48.626;12.486;2023-06-04T00:27:28;2.73;;;2.43;;
12840;SDS011;6487;48.626;12.486;2023-06-04T00:29:56;2.97;;;2.43;;
12840;SDS011;6487;48.626;12.486;2023-06-04T00:32:24;5.47;;;2.87;;
12840;SDS011;6487;48.626;12.486;2023-06-04T00:34:53;2.53;;;2.33;;
12840;SDS011;6487;48.626;12.486;2023-06-04T00:37:27;2.93;;;2.17;;
12840;SDS011;6487;48.626;12.486;2023-06-04T00:40:00;3.87;;;2.57;;
12840;SDS011;6487;48.626;12.486;2023-06-04T00:42:29;4.67;;;2.30;;
12840;SDS011;6487;48.626;12.486;2023-06-04T00:45:01;3.10;;;2.53;;
12840;SDS011;6487;48.626;12.486;2023-06-04T00:47:30;7.20;;;2.90;;
12840;SDS011;6487;48.626;12.486;2023-06-04T00:49:58;3.97;;;2.43;;
12840;SDS011;6487;48.626;12.486;2023-06-04T00:52:27;3.00;;;2.70;;
12840;SDS011;6487;48.626;12.486;2023-06-04T00:54:57;3.03;;;2.50;;
12840;SDS011;6487;48.626;12.486;2023-06-04T00:57:27;4.17;;;2.80;;
12840;SDS011;6487;48.626;12.486;2023-06-04T00:59:55;3.87;;;2.30;;
12840;SDS011;6487;48.626;12.486;2023-06-04T01:02:24;5.40;;;2.50;;
12840;SDS011;6487;48.626;12.486;2023-06-04T01:04:54;3.80;;;2.83;;
12840;SDS011;6487;48.626;12.486;2023-06-04T01:07:34;2.90;;;2.20;;
12840;SDS011;6487;48.626;12.486;2023-06-04T01:10:05;3.83;;;2.50;;
12840;SDS011;6487;48.626;12.486;2023-06-04T01:12:38;2.83;;;2.63;;
12840;SDS011;6487;48.626;12.486;2023-06-04T01:15:08;4.77;;;2.80;;
12840;SDS011;6487;48.626;12.486;2023-06-04T01:17:39;2.60;;;2.40;;
12840;SDS011;6487;48.626;12.486;2023-06-04T01:20:18;4.47;;;2.87;;
12840;SDS011;6487;48.626;12.486;2023-06-04T01:22:56;2.97;;;2.67;;
12840;SDS011;6487;48.626;12.486;2023-06-04T01:25:48;3.23;;;2.53;;
12840;SDS011;6487;48.626;12.486;2023-06-04T01:28:18;4.13;;;2.63;;
12840;SDS011;6487;48.626;12.486;2023-06-04T01:30:48;4.50;;;2.70;;
12840;SDS011;6487;48.626;12.486;2023-06-04T01:33:23;2.40;;;2.20;;
12840;SDS011;6487;48.626;12.486;2023-06-04T01:35:51;3.03;;;2.50;;
12840;SDS011;6487;48.626;12.486;2023-06-04T01:38:20;3.47;;;2.40;;
12840;SDS011;6487;48.626;12.486;2023-06-04T01:40:50;3.10;;;2.40;;
12840;SDS011;6487;48.626;12.486;2023-06-04T01:43:22;2.87;;;2.57;;
12840;SDS011;6487;48.626;12.486;2023-06-04T01:45:50;4.07;;;2.70;;
12840;SDS011;6487;48.626;12.486;2023-06-04T01:48:20;4.20;;;2.90;;
12840;SDS011;6487;48.626;12.486;2023-06-04T01:50:49;2.93;;;2.37;;
12840;SDS011;6487;48.626;12.486;2023-06-04T01:53:17;2.53;;;2.27;;
12840;SDS011;6487;48.626;12.486;2023-06-04T01:55:46;3.83;;;2.53;;
12840;SDS011;6487;48.626;12.486;2023-06-04T01:58:16;3.60;;;2.53;;
12840;SDS011;6487;48.626;12.486;2023-06-04T02:00:49;3.20;;;2.50;;
12840;SDS011;6487;48.626;12.486;2023-06-04T02:03:19;2.60;;;2.17;;
12840;SDS011;6487;48.626;12.486;2023-06-04T02:05:48;3.50;;;2.60;;
12840;SDS011;6487;48.626;12.486;2023-06-04T02:08:17;5.37;;;2.63;;
12840;SDS011;6487;48.626;12.486;2023-06-04T02:10:46;3.93;;;2.20;;
12840;SDS011;6487;48.626;12.486;2023-06-04T02:13:17;2.80;;;2.30;;
12840;SDS011;6487;48.626;12.486;2023-06-04T02:15:45;2.97;;;2.37;;
12840;SDS011;6487;48.626;12.486;2023-06-04T02:18:17;2.50;;;2.20;;
12840;SDS011;6487;48.626;12.486;2023-06-04T02:20:47;5.53;;;2.90;;
12840;SDS011;6487;48.626;12.486;2023-06-04T02:23:18;3.17;;;2.87;;
12840;SDS011;6487;48.626;12.486;2023-06-04T02:25:47;3.33;;;2.47;;
12840;SDS011;6487;48.626;12.486;2023-06-04T02:28:18;3.20;;;2.90;;
12840;SDS011;6487;48.626;12.486;2023-06-04T02:30:47;4.23;;;2.50;;
12840;SDS011;6487;48.626;12.486;2023-06-04T02:33:15;4.07;;;2.23;;
12840;SDS011;6487;48.626;12.486;2023-06-04T02:35:43;5.13;;;2.50;;
12840;SDS011;6487;48.626;12.486;2023-06-04T02:38:12;3.97;;;2.43;;
12840;SDS011;6487;48.626;12.486;2023-06-04T02:40:43;4.80;;;2.80;;
12840;SDS011;6487;48.626;12.486;2023-06-04T02:43:11;2.77;;;2.30;;
12840;SDS011;6487;48.626;12.486;2023-06-04T02:45:41;2.80;;;2.33;;
12840;SDS011;6487;48.626;12.486;2023-06-04T02:48:10;3.97;;;2.30;;
12840;SDS011;6487;48.626;12.486;2023-06-04T02:50:38;3.20;;;2.40;;
12840;SDS011;6487;48.626;12.486;2023-06-04T02:53:08;3.60;;;2.97;;
12840;SDS011;6487;48.626;12.486;2023-06-04T02:55:39;3.43;;;2.47;;
12840;SDS011;6487;48.626;12.486;2023-06-04T02:58:08;2.47;;;2.27;;
12840;SDS011;6487;48.626;12.486;2023-06-04T03:00:42;3.23;;;2.73;;
12840;SDS011;6487;48.626;12.486;2023-06-04T03:03:10;3.47;;;2.57;;
12840;SDS011;6487;48.626;12.486;2023-06-04T03:05:38;4.33;;;2.63;;
12840;SDS011;6487;48.626;12.486;2023-06-04T03:08:09;2.83;;;2.50;;
12840;SDS011;6487;48.626;12.486;2023-06-04T03:10:38;6.50;;;2.80;;
12840;SDS011;6487;48.626;12.486;2023-06-04T03:13:06;2.87;;;2.60;;
12840;SDS011;6487;48.626;12.486;2023-06-04T03:15:35;3.00;;;2.53;;
12840;SDS011;6487;48.626;12.486;2023-06-04T03:18:07;3.37;;;2.70;;
12840;SDS011;6487;48.626;12.486;2023-06-04T03:20:36;3.37;;;2.93;;
12840;SDS011;6487;48.626;12.486;2023-06-04T03:23:05;4.47;;;2.90;;
12840;SDS011;6487;48.626;12.486;2023-06-04T03:25:33;2.53;;;2.30;;
12840;SDS011;6487;48.626;12.486;2023-06-04T03:28:05;3.17;;;2.37;;
12840;SDS011;6487;48.626;12.486;2023-06-04T03:30:33;5.20;;;2.80;;
12840;SDS011;6487;48.626;12.486;2023-06-04T03:33:01;3.03;;;2.53;;
12840;SDS011;6487;48.626;12.486;2023-06-04T03:35:31;2.73;;;2.53;;
12840;SDS011;6487;48.626;12.486;2023-06-04T03:38:00;3.73;;;2.83;;
12840;SDS011;6487;48.626;12.486;2023-06-04T03:40:28;3.80;;;2.80;;
12840;SDS011;6487;48.626;12.486;2023-06-04T03:42:57;4.47;;;2.87;;
12840;SDS011;6487;48.626;12.486;2023-06-04T03:45:26;4.60;;;3.40;;
12840;SDS011;6487;48.626;12.486;2023-06-04T03:47:55;6.10;;;3.80;;
12840;SDS011;6487;48.626;12.486;2023-06-04T03:50:23;5.60;;;3.70;;
12840;SDS011;6487;48.626;12.486;2023-06-04T03:52:53;4.83;;;4.10;;
12840;SDS011;6487;48.626;12.486;2023-06-04T03:55:21;4.20;;;3.90;;
12840;SDS011;6487;48.626;12.486;2023-06-04T03:57:50;5.47;;;3.83;;
12840;SDS011;6487;48.626;12.486;2023-06-04T04:00:18;4.30;;;3.80;;
12840;SDS011;6487;48.626;12.486;2023-06-04T04:02:47;4.30;;;3.90;;
12840;SDS011;6487;48.626;12.486;2023-06-04T04:05:16;4.73;;;4.30;;
12840;SDS011;6487;48.626;12.486;2023-06-04T04:07:45;6.17;;;4.07;;
12840;SDS011;6487;48.626;12.486;2023-06-04T04:10:15;5.13;;;4.63;;
12840;SDS011;6487;48.626;12.486;2023-06-04T04:12:43;4.73;;;4.40;;
12840;SDS011;6487;48.626;12.486;2023-06-04T04:15:12;6.43;;;4.67;;
12840;SDS011;6487;48.626;12.486;2023-06-04T04:17:40;5.13;;;4.73;;
12840;SDS011;6487;48.626;12.486;2023-06-04T04:20:09;5.40;;;4.83;;
12840;SDS011;6487;48.626;12.486;2023-06-04T04:22:39;5.40;;;4.90;;
12840;SDS011;6487;48.626;12.486;2023-06-04T04:25:09;7.20;;;5.07;;
12840;SDS011;6487;48.626;12.486;2023-06-04T04:27:38;5.20;;;4.00;;
12840;SDS011;6487;48.626;12.486;2023-06-04T04:30:07;4.07;;;3.67;;
12840;SDS011;6487;48.626;12.486;2023-06-04T04:32:39;5.97;;;3.83;;
12840;SDS011;6487;48.626;12.486;2023-06-04T04:35:15;6.03;;;3.77;;
12840;SDS011;6487;48.626;12.486;2023-06-04T04:37:44;5.23;;;3.10;;
12840;SDS011;6487;48.626;12.486;2023-06-04T04:40:13;3.30;;;3.00;;
12840;SDS011;6487;48.626;12.486;2023-06-04T04:42:43;3.17;;;2.87;;
12840;SDS011;6487;48.626;12.486;2023-06-04T04:45:11;3.77;;;3.20;;
12840;SDS011;6487;48.626;12.486;2023-06-04T04:47:39;5.03;;;3.20;;
12840;SDS011;6487;48.626;12.486;2023-06-04T04:50:08;4.73;;;2.70;;
12840;SDS011;6487;48.626;12.486;2023-06-04T04:52:41;3.07;;;2.77;;
12840;SDS011;6487;48.626;12.486;2023-06-04T04:55:09;4.43;;;2.87;;
12840;SDS011;6487;48.626;12.486;2023-06-04T04:57:40;3.93;;;3.10;;
12840;SDS011;6487;48.626;12.486;2023-06-04T05:00:10;3.80;;;2.87;;
12840;SDS011;6487;48.626;12.486;2023-06-04T05:02:41;3.83;;;3.00;;
12840;SDS011;6487;48.626;12.486;2023-06-04T05:05:09;4.63;;;3.00;;
12840;SDS011;6487;48.626;12.486;2023-06-04T05:07:38;4.43;;;3.20;;
12840;SDS011;6487;48.626;12.486;2023-06-04T05:10:07;5.17;;;3.10;;
12840;SDS011;6487;48.626;12.486;2023-06-04T05:12:39;4.97;;;3.30;;
12840;SDS011;6487;48.626;12.486;2023-06-04T05:15:09;4.00;;;3.00;;
12840;SDS011;6487;48.626;12.486;2023-06-04T05:17:38;5.93;;;2.70;;
12840;SDS011;6487;48.626;12.486;2023-06-04T05:20:07;4.63;;;2.77;;
12840;SDS011;6487;48.626;12.486;2023-06-04T05:22:42;3.60;;;2.90;;
12840;SDS011;6487;48.626;12.486;2023-06-04T05:25:11;4.03;;;3.23;;
12840;SDS011;6487;48.626;12.486;2023-06-04T05:27:40;3.57;;;2.80;;
12840;SDS011;6487;48.626;12.486;2023-06-04T05:30:10;4.77;;;3.13;;
12840;SDS011;6487;48.626;12.486;2023-06-04T05:32:40;4.13;;;2.70;;
12840;SDS011;6487;48.626;12.486;2023-06-04T05:35:11;4.70;;;2.57;;
12840;SDS011;6487;48.626;12.486;2023-06-04T05:37:40;5.63;;;2.50;;
12840;SDS011;6487;48.626;12.486;2023-06-04T05:40:11;3.20;;;2.67;;
12840;SDS011;6487;48.626;12.486;2023-06-04T05:42:42;2.93;;;2.30;;
12840;SDS011;6487;48.626;12.486;2023-06-04T05:45:12;3.27;;;2.20;;
12840;SDS011;6487;48.626;12.486;2023-06-04T05:47:41;3.43;;;2.60;;
12840;SDS011;6487;48.626;12.486;2023-06-04T05:50:09;2.50;;;2.30;;
12840;SDS011;6487;48.626;12.486;2023-06-04T05:52:42;2.67;;;2.07;;
12840;SDS011;6487;48.626;12.486;2023-06-04T05:55:10;3.00;;;2.50;;
12840;SDS011;6487;48.626;12.486;2023-06-04T05:57:38;2.50;;;2.30;;
12840;SDS011;6487;48.626;12.486;2023-06-04T06:00:14;3.23;;;2.20;;
12840;SDS011;6487;48.626;12.486;2023-06-04T06:02:44;3.17;;;2.53;;
12840;SDS011;6487;48.626;12.486;2023-06-04T06:05:15;3.33;;;2.50;;
12840;SDS011;6487;48.626;12.486;2023-06-04T06:07:45;4.30;;;2.83;;
12840;SDS011;6487;48.626;12.486;2023-06-04T06:10:14;3.43;;;2.33;;
12840;SDS011;6487;48.626;12.486;2023-06-04T06:12:43;4.73;;;2.17;;
12840;SDS011;6487;48.626;12.486;2023-06-04T06:15:15;2.70;;;2.20;;
12840;SDS011;6487;48.626;12.486;2023-06-04T06:17:44;3.17;;;2.50;;
12840;SDS011;6487;48.626;12.486;2023-06-04T06:20:12;5.03;;;2.43;;
12840;SDS011;6487;48.626;12.486;2023-06-04T06:22:44;3.60;;;2.40;;
12840;SDS011;6487;48.626;12.486;2023-06-04T06:25:12;3.73;;;2.57;;
12840;SDS011;6487;48.626;12.486;2023-06-04T06:27:42;4.63;;;2.90;;
12840;SDS011;6487;48.626;12.486;2023-06-04T06:30:11;2.67;;;2.47;;
12840;SDS011;6487;48.626;12.486;2023-06-04T06:32:42;2.67;;;2.40;;
12840;SDS011;6487;48.626;12.486;2023-06-04T06:35:10;4.13;;;2.53;;
12840;SDS011;6487;48.626;12.486;2023-06-04T06:37:41;2.83;;;2.53;;
12840;SDS011;6487;48.626;12.486;2023-06-04T06:40:10;3.20;;;2.73;;
12840;SDS011;6487;48.626;12.486;2023-06-04T06:42:38;2.90;;;2.53;;
12840;SDS011;6487;48.626;12.486;2023-06-04T06:45:07;3.30;;;2.60;;
12840;SDS011;6487;48.626;12.486;2023-06-04T06:47:38;3.27;;;2.57;;
12840;SDS011;6487;48.626;12.486;2023-06-04T06:50:08;4.77;;;2.40;;
12840;SDS011;6487;48.626;12.486;2023-06-04T06:52:38;2.57;;;2.30;;
12840;SDS011;6487;48.626;12.486;2023-06-04T06:55:06;5.23;;;2.57;;
12840;SDS011;6487;48.626;12.486;2023-06-04T06:57:38;6.00;;;2.20;;
12840;SDS011;6487;48.626;12.486;2023-06-04T07:00:07;2.43;;;2.13;;
12840;SDS011;6487;48.626;12.486;2023-06-04T07:02:37;5.23;;;2.50;;
12840;SDS011;6487;48.626;12.486;2023-06-04T07:05:06;2.77;;;2.27;;
12840;SDS011;6487;48.626;12.486;2023-06-04T07:07:43;3.63;;;2.20;;
12840;SDS011;6487;48.626;12.486;2023-06-04T07:10:12;4.17;;;2.40;;
12840;SDS011;6487;48.626;12.486;2023-06-04T07:12:41;3.03;;;2.17;;
12840;SDS011;6487;48.626;12.486;2023-06-04T07:15:09;5.60;;;2.33;;
12840;SDS011;6487;48.626;12.486;2023-06-04T07:17:38;3.20;;;2.60;;
12840;SDS011;6487;48.626;12.486;2023-06-04T07:20:07;4.13;;;2.20;;
12840;SDS011;6487;48.626;12.486;2023-06-04T07:22:37;4.00;;;2.73;;
12840;SDS011;6487;48.626;12.486;2023-06-04T07:25:06;5.73;;;2.27;;
12840;SDS011;6487;48.626;12.486;2023-06-04T07:27:35;3.83;;;2.90;;
12840;SDS011;6487;48.626;12.486;2023-06-04T07:30:05;4.07;;;2.63;;
12840;SDS011;6487;48.626;12.486;2023-06-04T07:32:35;4.00;;;2.40;;
12840;SDS011;6487;48.626;12.486;2023-06-04T07:35:03;2.23;;;1.90;;
12840;SDS011;6487;48.626;12.486;2023-06-04T07:37:33;4.67;;;2.60;;
12840;SDS011;6487;48.626;12.486;2023-06-04T07:40:03;3.00;;;2.43;;
12840;SDS011;6487;48.626;12.486;2023-06-04T07:42:32;3.43;;;2.53;;
12840;SDS011;6487;48.626;12.486;2023-06-04T07:45:00;4.20;;;2.77;;
12840;SDS011;6487;48.626;12.486;2023-06-04T07:47:35;3.17;;;2.60;;
12840;SDS011;6487;48.626;12.486;2023-06-04T07:50:05;3.63;;;2.77;;
12840;SDS011;6487;48.626;12.486;2023-06-04T07:52:38;4.00;;;2.37;;
12840;SDS011;6487;48.626;12.486;2023-06-04T07:55:08;3.77;;;2.33;;
12840;SDS011;6487;48.626;12.486;2023-06-04T07:57:40;5.83;;;2.47;;
12840;SDS011;6487;48.626;12.486;2023-06-04T08:00:11;4.53;;;2.60;;
12840;SDS011;6487;48.626;12.486;2023-06-04T08:02:43;3.20;;;2.90;;
12840;SDS011;6487;48.626;12.486;2023-06-04T08:05:12;3.63;;;2.57;;
12840;SDS011;6487;48.626;12.486;2023-06-04T08:07:43;3.27;;;2.53;;
12840;SDS011;6487;48.626;12.486;2023-06-04T08:10:15;8.07;;;2.67;;
12840;SDS011;6487;48.626;12.486;2023-06-04T08:12:43;2.53;;;2.33;;
12840;SDS011;6487;48.626;12.486;2023-06-04T08:15:11;4.30;;;2.30;;
12840;SDS011;6487;48.626;12.486;2023-06-04T08:17:40;5.17;;;2.53;;
12840;SDS011;6487;48.626;12.486;2023-06-04T08:20:08;2.50;;;2.30;;
12840;SDS011;6487;48.626;12.486;2023-06-04T08:22:40;2.40;;;2.20;;
12840;SDS011;6487;48.626;12.486;2023-06-04T08:25:09;4.70;;;2.33;;
12840;SDS011;6487;48.626;12.486;2023-06-04T08:27:39;3.27;;;2.40;;
12840;SDS011;6487;48.626;12.486;2023-06-04T08:30:08;3.47;;;2.17;;
12840;SDS011;6487;48.626;12.486;2023-06-04T08:32:38;4.70;;;2.63;;
12840;SDS011;6487;48.626;12.486;2023-06-04T08:35:07;3.60;;;2.10;;
12840;SDS011;6487;48.626;12.486;2023-06-04T08:37:37;2.37;;;2.17;;
12840;SDS011;6487;48.626;12.486;2023-06-04T08:40:06;4.33;;;2.10;;
12840;SDS011;6487;48.626;12.486;2023-06-04T08:42:40;5.33;;;2.27;;
12840;SDS011;6487;48.626;12.486;2023-06-04T08:45:11;5.87;;;2.47;;
12840;SDS011;6487;48.626;12.486;2023-06-04T08:47:43;4.80;;;2.57;;
12840;SDS011;6487;48.626;12.486;2023-06-04T08:50:16;3.97;;;2.10;;
12840;SDS011;6487;48.626;12.486;2023-06-04T08:52:49;7.87;;;3.10;;
12840;SDS011;6487;48.626;12.486;2023-06-04T08:55:21;3.97;;;2.07;;
12840;SDS011;6487;48.626;12.486;2023-06-04T08:57:54;4.73;;;2.53;;
12840;SDS011;6487;48.626;12.486;2023-06-04T09:00:22;2.80;;;2.50;;
12840;SDS011;6487;48.626;12.486;2023-06-04T09:02:51;3.67;;;2.40;;
12840;SDS011;6487;48.626;12.486;2023-06-04T09:05:20;2.63;;;2.30;;
12840;SDS011;6487;48.626;12.486;2023-06-04T09:08:00;3.30;;;2.57;;
12840;SDS011;6487;48.626;12.486;2023-06-04T09:10:31;4.93;;;2.00;;
12840;SDS011;6487;48.626;12.486;2023-06-04T09:13:03;3.50;;;2.27;;
12840;SDS011;6487;48.626;12.486;2023-06-04T09:15:34;5.30;;;2.10;;
12840;SDS011;6487;48.626;12.486;2023-06-04T09:18:02;4.03;;;2.60;;
12840;SDS011;6487;48.626;12.486;2023-06-04T09:20:31;2.50;;;2.27;;
12840;SDS011;6487;48.626;12.486;2023-06-04T09:22:59;4.93;;;2.60;;
12840;SDS011;6487;48.626;12.486;2023-06-04T09:25:28;2.70;;;2.30;;
12840;SDS011;6487;48.626;12.486;2023-06-04T09:27:57;2.97;;;2.20;;
12840;SDS011;6487;48.626;12.486;2023-06-04T09:30:34;2.77;;;2.37;;
12840;SDS011;6487;48.626;12.486;2023-06-04T09:33:06;2.93;;;2.63;;
12840;SDS011;6487;48.626;12.486;2023-06-04T09:35:35;2.93;;;2.50;;
12840;SDS011;6487;48.626;12.486;2023-06-04T09:38:04;3.20;;;2.57;;
12840;SDS011;6487;48.626;12.486;2023-06-04T09:40:36;4.45;;;2.47;;
12840;SDS011;6487;48.626;12.486;2023-06-04T09:43:08;2.42;;;2.22;;
12840;SDS011;6487;48.626;12.486;2023-06-04T09:45:49;5.28;;;2.42;;
12840;SDS011;6487;48.626;12.486;2023-06-04T09:48:19;3.97;;;2.75;;
12840;SDS011;6487;48.626;12.486;2023-06-04T09:50:48;5.55;;;2.13;;
12840;SDS011;6487;48.626;12.486;2023-06-04T09:53:17;3.80;;;2.28;;
12840;SDS011;6487;48.626;12.486;2023-06-04T09:55:56;3.55;;;2.22;;
12840;SDS011;6487;48.626;12.486;2023-06-04T09:58:27;3.55;;;2.40;;
12840;SDS011;6487;48.626;12.486;2023-06-04T10:00:57;3.25;;;2.47;;
12840;SDS011;6487;48.626;12.486;2023-06-04T10:03:27;3.45;;;2.28;;
12840;SDS011;6487;48.626;12.486;2023-06-04T10:05:59;3.03;;;2.72;;
12840;SDS011;6487;48.626;12.486;2023-06-04T10:08:30;2.92;;;2.58;;
12840;SDS011;6487;48.626;12.486;2023-06-04T10:11:00;2.55;;;2.35;;
12840;SDS011;6487;48.626;12.486;2023-06-04T10:13:37;2.72;;;2.20;;
12840;SDS011;6487;48.626;12.486;2023-06-04T10:16:12;2.40;;;2.20;;
12840;SDS011;6487;48.626;12.486;2023-06-04T10:18:58;3.08;;;2.50;;
12840;SDS011;6487;48.626;12.486;2023-06-04T10:21:28;2.83;;;2.22;;
12840;SDS011;6487;48.626;12.486;2023-06-04T10:24:01;3.28;;;2.60;;
12840;SDS011;6487;48.626;12.486;2023-06-04T10:26:32;2.72;;;2.50;;
12840;SDS011;6487;48.626;12.486;2023-06-04T10:29:03;3.08;;;2.78;;
12840;SDS011;6487;48.626;12.486;2023-06-04T10:31:31;2.60;;;2.33;;
12840;SDS011;6487;48.626;12.486;2023-06-04T10:34:00;3.03;;;2.53;;
12840;SDS011;6487;48.626;12.486;2023-06-04T10:36:29;2.60;;;2.40;;
12840;SDS011;6487;48.626;12.486;2023-06-04T10:38:57;4.57;;;2.28;;
12840;SDS011;6487;48.626;12.486;2023-06-04T10:41:26;2.80;;;2.45;;
12840;SDS011;6487;48.626;12.486;2023-06-04T10:44:00;2.60;;;2.40;;
12840;SDS011;6487;48.626;12.486;2023-06-04T10:46:37;4.30;;;2.67;;
12840;SDS011;6487;48.626;12.486;2023-06-04T10:49:08;2.85;;;2.33;;
12840;SDS011;6487;48.626;12.486;2023-06-04T10:51:38;2.60;;;2.40;;
12840;SDS011;6487;48.626;12.486;2023-06-04T10:54:07;2.22;;;2.03;;
12840;SDS011;6487;48.626;12.486;2023-06-04T10:56:35;4.90;;;2.67;;
12840;SDS011;6487;48.626;12.486;2023-06-04T10:59:15;4.57;;;2.47;;
12840;SDS011;6487;48.626;12.486;2023-06-04T11:01:45;3.85;;;2.30;;
12840;SDS011;6487;48.626;12.486;2023-06-04T11:04:20;2.88;;;2.60;;
12840;SDS011;6487;48.626;12.486;2023-06-04T11:06:59;3.08;;;2.78;;
12840;SDS011;6487;48.626;12.486;2023-06-04T11:09:29;2.42;;;2.22;;
12840;SDS011;6487;48.626;12.486;2023-06-04T11:12:00;3.58;;;2.72;;
12840;SDS011;6487;48.626;12.486;2023-06-04T11:14:31;4.57;;;3.15;;
12840;SDS011;6487;48.626;12.486;2023-06-04T11:17:08;5.15;;;2.60;;
12840;SDS011;6487;48.626;12.486;2023-06-04T11:19:38;2.60;;;2.40;;
12840;SDS011;6487;48.626;12.486;2023-06-04T11:22:07;2.50;;;2.30;;
12840;SDS011;6487;48.626;12.486;2023-06-04T11:24:39;3.05;;;2.75;;
12840;SDS011;6487;48.626;12.486;2023-06-04T11:27:07;3.70;;;3.17;;
12840;SDS011;6487;48.626;12.486;2023-06-04T11:29:51;3.03;;;2.70;;
12840;SDS011;6487;48.626;12.486;2023-06-04T11:32:21;3.03;;;2.53;;
12840;SDS011;6487;48.626;12.486;2023-06-04T11:34:51;4.38;;;2.83;;
12840;SDS011;6487;48.626;12.486;2023-06-04T11:37:29;2.83;;;2.55;;
12840;SDS011;6487;48.626;12.486;2023-06-04T11:39:59;4.80;;;2.85;;
12840;SDS011;6487;48.626;12.486;2023-06-04T11:42:28;4.88;;;3.17;;
12840;SDS011;6487;48.626;12.486;2023-06-04T11:44:59;4.70;;;2.75;;
12840;SDS011;6487;48.626;12.486;2023-06-04T11:47:28;2.85;;;2.63;;
12840;SDS011;6487;48.626;12.486;2023-06-04T11:49:57;2.95;;;2.75;;
12840;SDS011;6487;48.626;12.486;2023-06-04T11:52:27;3.63;;;2.97;;
12840;SDS011;6487;48.626;12.486;2023-06-04T11:54:56;2.70;;;2.50;;
12840;SDS011;6487;48.626;12.486;2023-06-04T11:57:24;6.38;;;3.08;;
12840;SDS011;6487;48.626;12.486;2023-06-04T11:59:53;3.38;;;3.05;;
12840;SDS011;6487;48.626;12.486;2023-06-04T12:02:26;3.25;;;2.95;;
12840;SDS011;6487;48.626;12.486;2023-06-04T12:04:54;4.70;;;3.00;;
12840;SDS011;6487;48.626;12.486;2023-06-04T12:07:22;3.92;;;2.85;;
12840;SDS011;6487;48.626;12.486;2023-06-04T12:09:51;3.15;;;2.72;;
12840;SDS011;6487;48.626;12.486;2023-06-04T12:12:21;3.30;;;3.00;;
12840;SDS011;6487;48.626;12.486;2023-06-04T12:14:57;3.80;;;3.05;;
12840;SDS011;6487;48.626;12.486;2023-06-04T12:17:27;4.28;;;2.90;;
12840;SDS011;6487;48.626;12.486;2023-06-04T12:19:56;3.70;;;2.97;;
12840;SDS011;6487;48.626;12.486;2023-06-04T12:22:25;3.72;;;3.22;;
12840;SDS011;6487;48.626;12.486;2023-06-04T12:24:54;5.95;;;2.83;;
12840;SDS011;6487;48.626;12.486;2023-06-04T12:27:25;3.13;;;2.80;;
12840;SDS011;6487;48.626;12.486;2023-06-04T12:29:54;3.47;;;3.15;;
12840;SDS011;6487;48.626;12.486;2023-06-04T12:32:25;2.85;;;2.47;;
12840;SDS011;6487;48.626;12.486;2023-06-04T12:34:55;3.90;;;2.97;;
12840;SDS011;6487;48.626;12.486;2023-06-04T12:37:24;3.45;;;2.80;;
12840;SDS011;6487;48.626;12.486;2023-06-04T12:39:56;3.10;;;2.80;;
12840;SDS011;6487;48.626;12.486;2023-06-04T12:42:24;3.13;;;2.92;;
12840;SDS011;6487;48.626;12.486;2023-06-04T12:44:54;4.65;;;3.40;;
12840;SDS011;6487;48.626;12.486;2023-06-04T12:47:22;3.65;;;3.35;;
12840;SDS011;6487;48.626;12.486;2023-06-04T12:49:51;3.40;;;3.10;;
12840;SDS011;6487;48.626;12.486;2023-06-04T12:52:21;3.55;;;3.20;;
12840;SDS011;6487;48.626;12.486;2023-06-04T12:54:49;3.33;;;3.03;;
12840;SDS011;6487;48.626;12.486;2023-06-04T12:57:17;6.10;;;2.83;;
12840;SDS011;6487;48.626;12.486;2023-06-04T12:59:46;3.45;;;3.15;;
12840;SDS011;6487;48.626;12.486;2023-06-04T13:02:14;3.25;;;2.95;;
12840;SDS011;6487;48.626;12.486;2023-06-04T13:04:43;3.60;;;3.20;;
12840;SDS011;6487;48.626;12.486;2023-06-04T13:07:12;4.82;;;3.28;;
12840;SDS011;6487;48.626;12.486;2023-06-04T13:09:42;4.00;;;3.60;;
12840;SDS011;6487;48.626;12.486;2023-06-04T13:12:10;5.97;;;3.30;;
12840;SDS011;6487;48.626;12.486;2023-06-04T13:14:39;3.95;;;3.55;;
12840;SDS011;6487;48.626;12.486;2023-06-04T13:17:08;3.15;;;2.83;;
12840;SDS011;6487;48.626;12.486;2023-06-04T13:19:48;4.43;;;3.30;;
12840;SDS011;6487;48.626;12.486;2023-06-04T13:22:16;3.60;;;3.30;;
12840;SDS011;6487;48.626;12.486;2023-06-04T13:24:46;4.18;;;3.22;;
12840;SDS011;6487;48.626;12.486;2023-06-04T13:27:15;3.58;;;3.28;;
12840;SDS011;6487;48.626;12.486;2023-06-04T13:29:43;4.18;;;3.85;;
12840;SDS011;6487;48.626;12.486;2023-06-04T13:32:11;4.93;;;3.75;;
12840;SDS011;6487;48.626;12.486;2023-06-04T13:34:40;4.32;;;3.92;;
12840;SDS011;6487;48.626;12.486;2023-06-04T13:37:08;4.40;;;4.00;;
12840;SDS011;6487;48.626;12.486;2023-06-04T13:39:38;3.88;;;3.47;;
12840;SDS011;6487;48.626;12.486;2023-06-04T13:42:08;5.45;;;4.18;;
12840;SDS011;6487;48.626;12.486;2023-06-04T13:44:36;4.22;;;3.92;;
12840;SDS011;6487;48.626;12.486;2023-06-04T13:47:05;5.35;;;4.30;;
12840;SDS011;6487;48.626;12.486;2023-06-04T13:49:33;4.07;;;3.78;;
12840;SDS011;6487;48.626;12.486;2023-06-04T13:52:02;4.10;;;3.75;;
12840;SDS011;6487;48.626;12.486;2023-06-04T13:54:31;5.00;;;4.05;;
12840;SDS011;6487;48.626;12.486;2023-06-04T13:57:01;3.78;;;3.40;;
12840;SDS011;6487;48.626;12.486;2023-06-04T13:59:32;3.88;;;3.58;;
12840;SDS011;6487;48.626;12.486;2023-06-04T14:02:01;3.78;;;3.47;;
12840;SDS011;6487;48.626;12.486;2023-06-04T14:04:29;4.05;;;3.65;;
12840;SDS011;6487;48.626;12.486;2023-06-04T14:06:58;3.83;;;3.50;;
12840;SDS011;6487;48.626;12.486;2023-06-04T14:09:26;4.10;;;3.55;;
12840;SDS011;6487;48.626;12.486;2023-06-04T14:11:55;4.10;;;3.70;;
12840;SDS011;6487;48.626;12.486;2023-06-04T14:14:24;5.70;;;3.90;;
12840;SDS011;6487;48.626;12.486;2023-06-04T14:16:54;4.75;;;3.83;;
12840;SDS011;6487;48.626;12.486;2023-06-04T14:19:24;3.58;;;3.28;;
12840;SDS011;6487;48.626;12.486;2023-06-04T14:21:52;4.13;;;3.72;;
12840;SDS011;6487;48.626;12.486;2023-06-04T14:24:21;4.15;;;3.85;;
12840;SDS011;6487;48.626;12.486;2023-06-04T14:26:49;3.78;;;3.50;;
12840;SDS011;6487;48.626;12.486;2023-06-04T14:29:18;4.13;;;3.83;;
12840;SDS011;6487;48.626;12.486;2023-06-04T14:31:46;5.10;;;4.10;;
12840;SDS011;6487;48.626;12.486;2023-06-04T14:34:16;3.75;;;3.45;;
12840;SDS011;6487;48.626;12.486;2023-06-04T14:36:45;4.32;;;3.92;;
12840;SDS011;6487;48.626;12.486;2023-06-04T14:39:14;4.10;;;3.80;;
12840;SDS011;6487;48.626;12.486;2023-06-04T14:41:42;4.28;;;3.97;;
12840;SDS011;6487;48.626;12.486;2023-06-04T14:44:11;4.28;;;3.88;;
12840;SDS011;6487;48.626;12.486;2023-06-04T14:46:39;4.93;;;4.28;;
12840;SDS011;6487;48.626;12.486;2023-06-04T14:49:08;4.60;;;4.07;;
12840;SDS011;6487;48.626;12.486;2023-06-04T14:51:38;4.65;;;4.25;;
12840;SDS011;6487;48.626;12.486;2023-06-04T14:54:06;4.78;;;4.13;;
12840;SDS011;6487;48.626;12.486;2023-06-04T14:56:34;4.68;;;4.25;;
12840;SDS011;6487;48.626;12.486;2023-06-04T14:59:03;5.35;;;4.22;;
12840;SDS011;6487;48.626;12.486;2023-06-04T15:01:35;5.13;;;3.85;;
12840;SDS011;6487;48.626;12.486;2023-06-04T15:04:04;4.55;;;4.15;;